sensor_id;sensor_type;location;lat;lon;timestamp;P1;durP1;ratioP1;P2;durP2;ratioP2
56267;SDS011;42175;46.930;9.532;2022-10-12T00:01:52;10.65;;;3.60;;
56267;SDS011;42175;46.930;9.532;2022-10-12T00:04:18;14.77;;;4.18;;
56267;SDS011;42175;46.930;9.532;2022-10-12T00:06:44;10.15;;;3.90;;
56267;SDS011;42175;46.930;9.532;2022-10-12T00:09:10;12.75;;;4.57;;
56267;SDS011;42175;46.930;9.532;2022-10-12T00:11:36;12.88;;;4.65;;
56267;SDS011;42175;46.930;9.532;2022-10-12T00:14:04;8.20;;;3.67;;
56267;SDS011;42175;46.930;9.532;2022-10-12T00:16:31;7.93;;;3.78;;
56267;SDS011;42175;46.930;9.532;2022-10-12T00:18:58;7.35;;;3.67;;
56267;SDS011;42175;46.930;9.532;2022-10-12T00:21:25;11.15;;;3.40;;
56267;SDS011;42175;46.930;9.532;2022-10-12T00:23:55;10.65;;;4.03;;
56267;SDS011;42175;46.930;9.532;2022-10-12T00:26:22;13.13;;;3.92;;
56267;SDS011;42175;46.930;9.532;2022-10-12T00:28:48;5.80;;;3.35;;
56267;SDS011;42175;46.930;9.532;2022-10-12T00:31:20;9.35;;;4.00;;
56267;SDS011;42175;46.930;9.532;2022-10-12T00:33:46;9.43;;;3.72;;
56267;SDS011;42175;46.930;9.532;2022-10-12T00:36:13;12.52;;;3.70;;
56267;SDS011;42175;46.930;9.532;2022-10-12T00:38:47;9.40;;;4.35;;
56267;SDS011;42175;46.930;9.532;2022-10-12T00:41:15;9.73;;;3.88;;
56267;SDS011;42175;46.930;9.532;2022-10-12T00:43:43;8.15;;;3.80;;
56267;SDS011;42175;46.930;9.532;2022-10-12T00:46:15;8.15;;;3.35;;
56267;SDS011;42175;46.930;9.532;2022-10-12T00:51:54;8.07;;;4.45;;
56267;SDS011;42175;46.930;9.532;2022-10-12T00:54:25;11.32;;;3.80;;
56267;SDS011;42175;46.930;9.532;2022-10-12T00:59:29;7.32;;;3.33;;
56267;SDS011;42175;46.930;9.532;2022-10-12T01:01:58;8.13;;;4.03;;
56267;SDS011;42175;46.930;9.532;2022-10-12T01:04:24;9.27;;;3.85;;
56267;SDS011;42175;46.930;9.532;2022-10-12T01:06:51;9.68;;;3.35;;
56267;SDS011;42175;46.930;9.532;2022-10-12T01:09:17;6.38;;;3.50;;
56267;SDS011;42175;46.930;9.532;2022-10-12T01:11:45;7.78;;;3.65;;
56267;SDS011;42175;46.930;9.532;2022-10-12T01:14:11;12.80;;;3.80;;
56267;SDS011;42175;46.930;9.532;2022-10-12T01:16:42;6.40;;;3.53;;
56267;SDS011;42175;46.930;9.532;2022-10-12T01:22:19;8.40;;;3.92;;
56267;SDS011;42175;46.930;9.532;2022-10-12T01:27:29;11.75;;;4.10;;
56267;SDS011;42175;46.930;9.532;2022-10-12T01:30:24;8.57;;;3.97;;
56267;SDS011;42175;46.930;9.532;2022-10-12T01:35:41;11.25;;;4.30;;
56267;SDS011;42175;46.930;9.532;2022-10-12T01:43:50;8.13;;;4.65;;
56267;SDS011;42175;46.930;9.532;2022-10-12T01:48:44;7.18;;;3.67;;
56267;SDS011;42175;46.930;9.532;2022-10-12T01:51:15;9.02;;;3.58;;
56267;SDS011;42175;46.930;9.532;2022-10-12T01:53:51;10.07;;;4.10;;
56267;SDS011;42175;46.930;9.532;2022-10-12T01:59:30;10.68;;;3.42;;
56267;SDS011;42175;46.930;9.532;2022-10-12T02:08:02;6.22;;;3.00;;
56267;SDS011;42175;46.930;9.532;2022-10-12T02:10:42;8.57;;;3.47;;
56267;SDS011;42175;46.930;9.532;2022-10-12T02:14:15;9.50;;;3.63;;
56267;SDS011;42175;46.930;9.532;2022-10-12T02:16:38;10.98;;;4.10;;
56267;SDS011;42175;46.930;9.532;2022-10-12T02:19:08;6.30;;;3.33;;
56267;SDS011;42175;46.930;9.532;2022-10-12T02:21:37;8.57;;;3.22;;
56267;SDS011;42175;46.930;9.532;2022-10-12T02:24:05;10.73;;;3.60;;
56267;SDS011;42175;46.930;9.532;2022-10-12T02:26:36;8.00;;;3.67;;
56267;SDS011;42175;46.930;9.532;2022-10-12T02:29:08;10.52;;;3.30;;
56267;SDS011;42175;46.930;9.532;2022-10-12T02:31:56;6.95;;;3.17;;
56267;SDS011;42175;46.930;9.532;2022-10-12T02:34:32;10.73;;;3.95;;
56267;SDS011;42175;46.930;9.532;2022-10-12T02:39:50;6.60;;;3.33;;
56267;SDS011;42175;46.930;9.532;2022-10-12T02:42:22;9.30;;;3.50;;
56267;SDS011;42175;46.930;9.532;2022-10-12T02:44:55;6.25;;;3.38;;
56267;SDS011;42175;46.930;9.532;2022-10-12T02:47:24;11.85;;;3.28;;
56267;SDS011;42175;46.930;9.532;2022-10-12T02:49:53;9.38;;;3.25;;
56267;SDS011;42175;46.930;9.532;2022-10-12T02:52:20;8.75;;;3.53;;
56267;SDS011;42175;46.930;9.532;2022-10-12T02:54:48;10.65;;;3.17;;
56267;SDS011;42175;46.930;9.532;2022-10-12T02:57:14;9.73;;;3.28;;
56267;SDS011;42175;46.930;9.532;2022-10-12T02:59:39;6.55;;;3.53;;
56267;SDS011;42175;46.930;9.532;2022-10-12T03:02:05;7.38;;;3.20;;
56267;SDS011;42175;46.930;9.532;2022-10-12T03:04:31;6.50;;;2.95;;
56267;SDS011;42175;46.930;9.532;2022-10-12T03:06:57;7.68;;;2.95;;
56267;SDS011;42175;46.930;9.532;2022-10-12T03:09:22;8.18;;;3.50;;
56267;SDS011;42175;46.930;9.532;2022-10-12T03:11:48;8.45;;;3.95;;
56267;SDS011;42175;46.930;9.532;2022-10-12T03:14:14;8.02;;;3.13;;
56267;SDS011;42175;46.930;9.532;2022-10-12T03:16:41;7.15;;;3.45;;
56267;SDS011;42175;46.930;9.532;2022-10-12T03:19:08;8.07;;;3.78;;
56267;SDS011;42175;46.930;9.532;2022-10-12T03:21:34;9.00;;;3.40;;
56267;SDS011;42175;46.930;9.532;2022-10-12T03:24:00;9.32;;;3.70;;
56267;SDS011;42175;46.930;9.532;2022-10-12T03:26:26;9.65;;;4.22;;
56267;SDS011;42175;46.930;9.532;2022-10-12T03:28:51;5.45;;;3.13;;
56267;SDS011;42175;46.930;9.532;2022-10-12T03:31:17;8.55;;;3.58;;
56267;SDS011;42175;46.930;9.532;2022-10-12T03:33:43;9.55;;;2.95;;
56267;SDS011;42175;46.930;9.532;2022-10-12T03:36:08;6.70;;;3.40;;
56267;SDS011;42175;46.930;9.532;2022-10-12T03:38:34;9.55;;;3.95;;
56267;SDS011;42175;46.930;9.532;2022-10-12T03:41:00;6.13;;;3.63;;
56267;SDS011;42175;46.930;9.532;2022-10-12T03:43:26;19.05;;;4.40;;
56267;SDS011;42175;46.930;9.532;2022-10-12T03:45:52;9.13;;;3.13;;
56267;SDS011;42175;46.930;9.532;2022-10-12T03:48:18;6.72;;;3.35;;
56267;SDS011;42175;46.930;9.532;2022-10-12T03:50:47;9.05;;;3.35;;
56267;SDS011;42175;46.930;9.532;2022-10-12T03:53:14;5.60;;;2.85;;
56267;SDS011;42175;46.930;9.532;2022-10-12T03:55:41;5.72;;;3.22;;
56267;SDS011;42175;46.930;9.532;2022-10-12T03:58:07;8.68;;;2.90;;
56267;SDS011;42175;46.930;9.532;2022-10-12T04:00:33;6.65;;;2.88;;
56267;SDS011;42175;46.930;9.532;2022-10-12T04:02:59;7.68;;;3.17;;
56267;SDS011;42175;46.930;9.532;2022-10-12T04:05:26;6.28;;;3.58;;
56267;SDS011;42175;46.930;9.532;2022-10-12T04:07:53;6.20;;;2.78;;
56267;SDS011;42175;46.930;9.532;2022-10-12T04:10:19;8.50;;;3.20;;
56267;SDS011;42175;46.930;9.532;2022-10-12T04:12:45;12.15;;;3.55;;
56267;SDS011;42175;46.930;9.532;2022-10-12T04:15:11;5.60;;;3.40;;
56267;SDS011;42175;46.930;9.532;2022-10-12T04:17:38;9.98;;;3.13;;
56267;SDS011;42175;46.930;9.532;2022-10-12T04:20:05;6.50;;;2.75;;
56267;SDS011;42175;46.930;9.532;2022-10-12T04:22:32;6.85;;;3.38;;
56267;SDS011;42175;46.930;9.532;2022-10-12T04:24:57;5.28;;;2.80;;
56267;SDS011;42175;46.930;9.532;2022-10-12T04:27:23;7.47;;;3.10;;
56267;SDS011;42175;46.930;9.532;2022-10-12T04:29:49;8.70;;;2.85;;
56267;SDS011;42175;46.930;9.532;2022-10-12T04:32:15;6.05;;;3.60;;
56267;SDS011;42175;46.930;9.532;2022-10-12T04:34:41;10.10;;;3.55;;
56267;SDS011;42175;46.930;9.532;2022-10-12T04:37:06;7.80;;;3.38;;
56267;SDS011;42175;46.930;9.532;2022-10-12T04:39:32;10.68;;;2.85;;
56267;SDS011;42175;46.930;9.532;2022-10-12T04:41:58;6.57;;;3.15;;
56267;SDS011;42175;46.930;9.532;2022-10-12T04:44:24;9.18;;;2.95;;
56267;SDS011;42175;46.930;9.532;2022-10-12T04:46:50;6.72;;;2.65;;
56267;SDS011;42175;46.930;9.532;2022-10-12T04:49:16;7.38;;;3.65;;
56267;SDS011;42175;46.930;9.532;2022-10-12T04:51:41;7.05;;;3.08;;
56267;SDS011;42175;46.930;9.532;2022-10-12T04:54:08;7.15;;;3.25;;
56267;SDS011;42175;46.930;9.532;2022-10-12T04:56:35;10.30;;;3.60;;
56267;SDS011;42175;46.930;9.532;2022-10-12T04:59:01;6.18;;;3.53;;
56267;SDS011;42175;46.930;9.532;2022-10-12T05:01:27;9.68;;;3.90;;
56267;SDS011;42175;46.930;9.532;2022-10-12T05:03:52;7.93;;;3.78;;
56267;SDS011;42175;46.930;9.532;2022-10-12T05:06:18;6.47;;;3.63;;
56267;SDS011;42175;46.930;9.532;2022-10-12T05:08:44;12.10;;;3.60;;
56267;SDS011;42175;46.930;9.532;2022-10-12T05:11:09;10.20;;;3.85;;
56267;SDS011;42175;46.930;9.532;2022-10-12T05:13:35;8.98;;;3.75;;
56267;SDS011;42175;46.930;9.532;2022-10-12T05:16:01;8.73;;;3.10;;
56267;SDS011;42175;46.930;9.532;2022-10-12T05:18:26;8.10;;;3.70;;
56267;SDS011;42175;46.930;9.532;2022-10-12T05:20:52;6.93;;;3.25;;
56267;SDS011;42175;46.930;9.532;2022-10-12T05:23:18;6.43;;;3.40;;
56267;SDS011;42175;46.930;9.532;2022-10-12T05:25:43;13.40;;;3.42;;
56267;SDS011;42175;46.930;9.532;2022-10-12T05:28:09;12.10;;;4.32;;
56267;SDS011;42175;46.930;9.532;2022-10-12T05:30:35;9.25;;;3.85;;
56267;SDS011;42175;46.930;9.532;2022-10-12T05:33:00;16.92;;;4.30;;
56267;SDS011;42175;46.930;9.532;2022-10-12T05:35:26;22.70;;;6.45;;
56267;SDS011;42175;46.930;9.532;2022-10-12T05:37:52;23.33;;;5.97;;
56267;SDS011;42175;46.930;9.532;2022-10-12T05:40:17;22.27;;;5.28;;
56267;SDS011;42175;46.930;9.532;2022-10-12T05:42:43;23.27;;;5.50;;
56267;SDS011;42175;46.930;9.532;2022-10-12T05:45:10;19.08;;;5.72;;
56267;SDS011;42175;46.930;9.532;2022-10-12T05:47:36;21.92;;;5.80;;
56267;SDS011;42175;46.930;9.532;2022-10-12T05:50:02;25.13;;;6.18;;
56267;SDS011;42175;46.930;9.532;2022-10-12T05:52:28;18.08;;;5.85;;
56267;SDS011;42175;46.930;9.532;2022-10-12T05:54:54;17.60;;;5.68;;
56267;SDS011;42175;46.930;9.532;2022-10-12T05:57:20;18.23;;;5.93;;
56267;SDS011;42175;46.930;9.532;2022-10-12T05:59:45;37.70;;;8.02;;
56267;SDS011;42175;46.930;9.532;2022-10-12T06:02:15;22.20;;;6.32;;
56267;SDS011;42175;46.930;9.532;2022-10-12T06:04:43;23.25;;;6.13;;
56267;SDS011;42175;46.930;9.532;2022-10-12T06:07:09;25.80;;;6.63;;
56267;SDS011;42175;46.930;9.532;2022-10-12T06:09:35;24.20;;;7.32;;
56267;SDS011;42175;46.930;9.532;2022-10-12T06:12:03;26.30;;;6.97;;
56267;SDS011;42175;46.930;9.532;2022-10-12T06:14:29;29.02;;;7.53;;
56267;SDS011;42175;46.930;9.532;2022-10-12T06:16:55;29.10;;;6.45;;
56267;SDS011;42175;46.930;9.532;2022-10-12T06:19:21;16.40;;;5.70;;
56267;SDS011;42175;46.930;9.532;2022-10-12T06:21:46;12.15;;;6.55;;
56267;SDS011;42175;46.930;9.532;2022-10-12T06:24:12;14.77;;;7.18;;
56267;SDS011;42175;46.930;9.532;2022-10-12T06:26:38;27.95;;;8.90;;
56267;SDS011;42175;46.930;9.532;2022-10-12T06:29:03;18.65;;;8.50;;
56267;SDS011;42175;46.930;9.532;2022-10-12T06:31:29;18.67;;;8.77;;
56267;SDS011;42175;46.930;9.532;2022-10-12T06:33:57;16.85;;;8.90;;
56267;SDS011;42175;46.930;9.532;2022-10-12T06:36:23;25.90;;;8.13;;
56267;SDS011;42175;46.930;9.532;2022-10-12T06:38:49;24.80;;;8.00;;
56267;SDS011;42175;46.930;9.532;2022-10-12T06:41:15;28.73;;;9.68;;
56267;SDS011;42175;46.930;9.532;2022-10-12T06:43:40;46.70;;;12.43;;
56267;SDS011;42175;46.930;9.532;2022-10-12T06:46:07;36.70;;;12.23;;
56267;SDS011;42175;46.930;9.532;2022-10-12T06:48:33;41.70;;;14.65;;
56267;SDS011;42175;46.930;9.532;2022-10-12T06:50:59;42.80;;;14.98;;
56267;SDS011;42175;46.930;9.532;2022-10-12T06:53:24;48.33;;;14.55;;
56267;SDS011;42175;46.930;9.532;2022-10-12T06:55:52;46.25;;;13.68;;
56267;SDS011;42175;46.930;9.532;2022-10-12T06:58:18;47.38;;;13.35;;
56267;SDS011;42175;46.930;9.532;2022-10-12T07:00:44;41.70;;;11.88;;
56267;SDS011;42175;46.930;9.532;2022-10-12T07:03:12;43.70;;;14.48;;
56267;SDS011;42175;46.930;9.532;2022-10-12T07:05:38;39.28;;;12.88;;
56267;SDS011;42175;46.930;9.532;2022-10-12T07:08:04;39.28;;;11.80;;
56267;SDS011;42175;46.930;9.532;2022-10-12T07:10:30;36.75;;;11.63;;
56267;SDS011;42175;46.930;9.532;2022-10-12T07:12:56;41.80;;;11.88;;
56267;SDS011;42175;46.930;9.532;2022-10-12T07:15:21;33.40;;;11.45;;
56267;SDS011;42175;46.930;9.532;2022-10-12T07:17:47;37.72;;;13.25;;
56267;SDS011;42175;46.930;9.532;2022-10-12T07:20:13;34.08;;;11.20;;
56267;SDS011;42175;46.930;9.532;2022-10-12T07:22:39;45.03;;;13.75;;
56267;SDS011;42175;46.930;9.532;2022-10-12T07:25:05;35.25;;;12.07;;
56267;SDS011;42175;46.930;9.532;2022-10-12T07:27:31;36.95;;;11.00;;
56267;SDS011;42175;46.930;9.532;2022-10-12T07:29:57;32.05;;;11.68;;
56267;SDS011;42175;46.930;9.532;2022-10-12T07:32:22;28.00;;;10.57;;
56267;SDS011;42175;46.930;9.532;2022-10-12T07:34:48;29.38;;;10.50;;
56267;SDS011;42175;46.930;9.532;2022-10-12T07:37:13;29.48;;;10.20;;
56267;SDS011;42175;46.930;9.532;2022-10-12T07:39:39;27.27;;;9.95;;
56267;SDS011;42175;46.930;9.532;2022-10-12T07:42:05;27.42;;;10.75;;
56267;SDS011;42175;46.930;9.532;2022-10-12T07:44:31;32.58;;;10.85;;
56267;SDS011;42175;46.930;9.532;2022-10-12T07:46:58;27.45;;;10.15;;
56267;SDS011;42175;46.930;9.532;2022-10-12T07:49:24;25.23;;;10.07;;
56267;SDS011;42175;46.930;9.532;2022-10-12T07:51:50;30.33;;;10.60;;
56267;SDS011;42175;46.930;9.532;2022-10-12T07:54:16;29.00;;;10.27;;
56267;SDS011;42175;46.930;9.532;2022-10-12T07:56:42;27.95;;;9.63;;
56267;SDS011;42175;46.930;9.532;2022-10-12T07:59:08;30.05;;;9.13;;
56267;SDS011;42175;46.930;9.532;2022-10-12T08:01:33;29.08;;;10.68;;
56267;SDS011;42175;46.930;9.532;2022-10-12T08:04:00;18.38;;;9.20;;
56267;SDS011;42175;46.930;9.532;2022-10-12T08:06:26;24.38;;;9.35;;
56267;SDS011;42175;46.930;9.532;2022-10-12T08:08:54;27.80;;;9.27;;
56267;SDS011;42175;46.930;9.532;2022-10-12T08:11:21;30.02;;;10.30;;
56267;SDS011;42175;46.930;9.532;2022-10-12T08:13:47;19.92;;;7.80;;
56267;SDS011;42175;46.930;9.532;2022-10-12T08:16:14;19.30;;;8.15;;
56267;SDS011;42175;46.930;9.532;2022-10-12T08:18:42;19.58;;;8.05;;
56267;SDS011;42175;46.930;9.532;2022-10-12T08:21:09;19.05;;;7.88;;
56267;SDS011;42175;46.930;9.532;2022-10-12T08:23:36;22.02;;;8.60;;
56267;SDS011;42175;46.930;9.532;2022-10-12T08:26:03;20.50;;;8.63;;
56267;SDS011;42175;46.930;9.532;2022-10-12T08:28:29;19.48;;;8.35;;
56267;SDS011;42175;46.930;9.532;2022-10-12T08:30:55;21.52;;;8.60;;
56267;SDS011;42175;46.930;9.532;2022-10-12T08:33:21;26.65;;;8.40;;
56267;SDS011;42175;46.930;9.532;2022-10-12T08:35:47;18.27;;;8.52;;
56267;SDS011;42175;46.930;9.532;2022-10-12T08:38:13;21.08;;;7.90;;
56267;SDS011;42175;46.930;9.532;2022-10-12T08:40:55;20.52;;;7.47;;
56267;SDS011;42175;46.930;9.532;2022-10-12T08:46:14;19.60;;;7.65;;
56267;SDS011;42175;46.930;9.532;2022-10-12T08:48:49;14.57;;;6.47;;
56267;SDS011;42175;46.930;9.532;2022-10-12T08:51:19;14.88;;;6.43;;
56267;SDS011;42175;46.930;9.532;2022-10-12T08:56:29;16.65;;;6.88;;
56267;SDS011;42175;46.930;9.532;2022-10-12T08:58:55;15.95;;;6.82;;
56267;SDS011;42175;46.930;9.532;2022-10-12T09:01:29;14.77;;;6.80;;
56267;SDS011;42175;46.930;9.532;2022-10-12T09:04:05;20.52;;;7.22;;
56267;SDS011;42175;46.930;9.532;2022-10-12T09:09:38;13.23;;;5.90;;
56267;SDS011;42175;46.930;9.532;2022-10-12T09:15:37;14.57;;;6.78;;
56267;SDS011;42175;46.930;9.532;2022-10-12T09:18:14;13.70;;;6.40;;
56267;SDS011;42175;46.930;9.532;2022-10-12T09:20:57;13.40;;;6.07;;
56267;SDS011;42175;46.930;9.532;2022-10-12T09:23:31;14.32;;;6.65;;
56267;SDS011;42175;46.930;9.532;2022-10-12T09:26:14;15.48;;;6.88;;
56267;SDS011;42175;46.930;9.532;2022-10-12T09:28:43;11.93;;;6.55;;
56267;SDS011;42175;46.930;9.532;2022-10-12T09:34:09;14.75;;;6.07;;
56267;SDS011;42175;46.930;9.532;2022-10-12T09:36:39;13.45;;;6.32;;
56267;SDS011;42175;46.930;9.532;2022-10-12T09:39:09;14.82;;;7.18;;
56267;SDS011;42175;46.930;9.532;2022-10-12T09:41:42;14.98;;;6.28;;
56267;SDS011;42175;46.930;9.532;2022-10-12T09:44:14;20.00;;;6.78;;
56267;SDS011;42175;46.930;9.532;2022-10-12T09:46:41;12.73;;;5.85;;
56267;SDS011;42175;46.930;9.532;2022-10-12T09:49:40;11.98;;;6.05;;
56267;SDS011;42175;46.930;9.532;2022-10-12T09:52:07;10.98;;;5.72;;
56267;SDS011;42175;46.930;9.532;2022-10-12T09:54:35;11.73;;;6.00;;
56267;SDS011;42175;46.930;9.532;2022-10-12T09:57:05;10.93;;;5.93;;
56267;SDS011;42175;46.930;9.532;2022-10-12T09:59:32;13.20;;;5.68;;
56267;SDS011;42175;46.930;9.532;2022-10-12T10:04:40;12.18;;;5.68;;
56267;SDS011;42175;46.930;9.532;2022-10-12T10:07:11;15.02;;;6.30;;
56267;SDS011;42175;46.930;9.532;2022-10-12T10:09:38;12.63;;;6.20;;
56267;SDS011;42175;46.930;9.532;2022-10-12T10:12:11;9.75;;;4.93;;
56267;SDS011;42175;46.930;9.532;2022-10-12T10:14:50;12.23;;;5.85;;
56267;SDS011;42175;46.930;9.532;2022-10-12T10:17:25;11.98;;;5.75;;
56267;SDS011;42175;46.930;9.532;2022-10-12T10:19:54;10.55;;;5.22;;
56267;SDS011;42175;46.930;9.532;2022-10-12T10:22:21;8.98;;;5.13;;
56267;SDS011;42175;46.930;9.532;2022-10-12T10:24:52;11.65;;;5.72;;
56267;SDS011;42175;46.930;9.532;2022-10-12T10:27:26;13.02;;;5.88;;
56267;SDS011;42175;46.930;9.532;2022-10-12T10:30:18;9.88;;;4.80;;
56267;SDS011;42175;46.930;9.532;2022-10-12T10:32:46;7.53;;;4.85;;
56267;SDS011;42175;46.930;9.532;2022-10-12T10:37:48;10.65;;;5.55;;
56267;SDS011;42175;46.930;9.532;2022-10-12T10:40:25;13.45;;;5.88;;
56267;SDS011;42175;46.930;9.532;2022-10-12T10:42:56;10.52;;;4.95;;
56267;SDS011;42175;46.930;9.532;2022-10-12T10:45:31;12.07;;;5.22;;
56267;SDS011;42175;46.930;9.532;2022-10-12T10:48:15;14.00;;;5.65;;
56267;SDS011;42175;46.930;9.532;2022-10-12T10:50:55;8.90;;;5.10;;
56267;SDS011;42175;46.930;9.532;2022-10-12T10:53:28;9.23;;;5.00;;
56267;SDS011;42175;46.930;9.532;2022-10-12T11:01:05;9.18;;;4.80;;
56267;SDS011;42175;46.930;9.532;2022-10-12T11:09:22;9.43;;;5.22;;
56267;SDS011;42175;46.930;9.532;2022-10-12T11:11:56;14.98;;;5.78;;
56267;SDS011;42175;46.930;9.532;2022-10-12T11:14:38;9.82;;;5.03;;
56267;SDS011;42175;46.930;9.532;2022-10-12T11:17:11;7.55;;;4.82;;
56267;SDS011;42175;46.930;9.532;2022-10-12T11:19:50;10.52;;;5.18;;
56267;SDS011;42175;46.930;9.532;2022-10-12T11:22:40;9.27;;;5.38;;
56267;SDS011;42175;46.930;9.532;2022-10-12T11:25:18;8.57;;;5.05;;
56267;SDS011;42175;46.930;9.532;2022-10-12T11:27:50;9.07;;;4.90;;
56267;SDS011;42175;46.930;9.532;2022-10-12T11:30:21;13.15;;;5.28;;
56267;SDS011;42175;46.930;9.532;2022-10-12T11:32:50;8.65;;;4.45;;
56267;SDS011;42175;46.930;9.532;2022-10-12T11:35:35;8.88;;;5.22;;
56267;SDS011;42175;46.930;9.532;2022-10-12T11:38:24;10.63;;;4.88;;
56267;SDS011;42175;46.930;9.532;2022-10-12T11:43:38;8.35;;;4.80;;
56267;SDS011;42175;46.930;9.532;2022-10-12T11:46:13;7.25;;;4.65;;
56267;SDS011;42175;46.930;9.532;2022-10-12T11:48:44;11.88;;;5.07;;
56267;SDS011;42175;46.930;9.532;2022-10-12T11:51:17;9.23;;;5.15;;
56267;SDS011;42175;46.930;9.532;2022-10-12T11:56:30;10.40;;;5.07;;
56267;SDS011;42175;46.930;9.532;2022-10-12T11:59:04;9.95;;;5.25;;
56267;SDS011;42175;46.930;9.532;2022-10-12T12:01:59;12.98;;;5.78;;
56267;SDS011;42175;46.930;9.532;2022-10-12T12:04:42;10.15;;;4.80;;
56267;SDS011;42175;46.930;9.532;2022-10-12T12:09:55;11.48;;;5.55;;
56267;SDS011;42175;46.930;9.532;2022-10-12T12:12:22;11.20;;;4.93;;
56267;SDS011;42175;46.930;9.532;2022-10-12T12:19:44;10.50;;;5.47;;
56267;SDS011;42175;46.930;9.532;2022-10-12T12:22:24;9.88;;;5.40;;
56267;SDS011;42175;46.930;9.532;2022-10-12T12:27:38;13.02;;;5.63;;
56267;SDS011;42175;46.930;9.532;2022-10-12T12:30:31;11.32;;;5.30;;
56267;SDS011;42175;46.930;9.532;2022-10-12T12:33:05;13.55;;;6.57;;
56267;SDS011;42175;46.930;9.532;2022-10-12T12:35:35;11.52;;;5.60;;
56267;SDS011;42175;46.930;9.532;2022-10-12T12:40:35;9.93;;;5.35;;
56267;SDS011;42175;46.930;9.532;2022-10-12T12:43:34;11.13;;;5.97;;
56267;SDS011;42175;46.930;9.532;2022-10-12T12:53:37;13.07;;;5.78;;
56267;SDS011;42175;46.930;9.532;2022-10-12T13:09:12;10.23;;;5.28;;
56267;SDS011;42175;46.930;9.532;2022-10-12T13:17:45;41.53;;;9.50;;
56267;SDS011;42175;46.930;9.532;2022-10-12T13:20:27;28.98;;;9.82;;
56267;SDS011;42175;46.930;9.532;2022-10-12T13:22:56;30.95;;;8.23;;
56267;SDS011;42175;46.930;9.532;2022-10-12T13:28:10;30.02;;;9.00;;
56267;SDS011;42175;46.930;9.532;2022-10-12T13:30:49;24.48;;;8.70;;
56267;SDS011;42175;46.930;9.532;2022-10-12T13:33:27;29.98;;;9.30;;
56267;SDS011;42175;46.930;9.532;2022-10-12T13:36:03;25.35;;;9.13;;
56267;SDS011;42175;46.930;9.532;2022-10-12T13:38:37;18.58;;;7.22;;
56267;SDS011;42175;46.930;9.532;2022-10-12T13:46:33;19.42;;;6.50;;
56267;SDS011;42175;46.930;9.532;2022-10-12T13:51:47;19.33;;;7.18;;
56267;SDS011;42175;46.930;9.532;2022-10-12T13:54:51;19.30;;;7.03;;
56267;SDS011;42175;46.930;9.532;2022-10-12T14:00:18;16.35;;;7.22;;
56267;SDS011;42175;46.930;9.532;2022-10-12T14:02:56;15.82;;;7.00;;
56267;SDS011;42175;46.930;9.532;2022-10-12T14:05:24;14.40;;;7.05;;
56267;SDS011;42175;46.930;9.532;2022-10-12T14:07:53;16.75;;;6.88;;
56267;SDS011;42175;46.930;9.532;2022-10-12T14:10:30;14.75;;;7.10;;
56267;SDS011;42175;46.930;9.532;2022-10-12T14:12:58;18.70;;;6.93;;
56267;SDS011;42175;46.930;9.532;2022-10-12T14:15:35;20.63;;;7.15;;
56267;SDS011;42175;46.930;9.532;2022-10-12T14:18:04;15.70;;;6.75;;
56267;SDS011;42175;46.930;9.532;2022-10-12T14:21:14;15.98;;;6.93;;
56267;SDS011;42175;46.930;9.532;2022-10-12T14:23:44;19.38;;;7.25;;
56267;SDS011;42175;46.930;9.532;2022-10-12T14:28:59;22.88;;;7.00;;
56267;SDS011;42175;46.930;9.532;2022-10-12T14:31:51;14.73;;;6.22;;
56267;SDS011;42175;46.930;9.532;2022-10-12T14:36:58;14.75;;;6.50;;
56267;SDS011;42175;46.930;9.532;2022-10-12T14:39:45;15.27;;;7.45;;
56267;SDS011;42175;46.930;9.532;2022-10-12T14:42:30;15.70;;;6.85;;
56267;SDS011;42175;46.930;9.532;2022-10-12T14:45:00;13.18;;;6.40;;
56267;SDS011;42175;46.930;9.532;2022-10-12T14:49:54;15.25;;;7.13;;
56267;SDS011;42175;46.930;9.532;2022-10-12T14:52:23;18.92;;;6.57;;
56267;SDS011;42175;46.930;9.532;2022-10-12T14:54:53;13.38;;;6.10;;
56267;SDS011;42175;46.930;9.532;2022-10-12T14:57:21;16.20;;;7.57;;
56267;SDS011;42175;46.930;9.532;2022-10-12T14:59:48;18.40;;;6.45;;
56267;SDS011;42175;46.930;9.532;2022-10-12T15:02:19;20.23;;;8.32;;
56267;SDS011;42175;46.930;9.532;2022-10-12T15:07:18;12.25;;;6.32;;
56267;SDS011;42175;46.930;9.532;2022-10-12T15:09:46;13.30;;;6.70;;
56267;SDS011;42175;46.930;9.532;2022-10-12T15:12:17;20.92;;;7.20;;
56267;SDS011;42175;46.930;9.532;2022-10-12T15:14:46;11.55;;;6.22;;
56267;SDS011;42175;46.930;9.532;2022-10-12T15:17:16;13.70;;;6.63;;
56267;SDS011;42175;46.930;9.532;2022-10-12T15:19:44;13.57;;;7.25;;
56267;SDS011;42175;46.930;9.532;2022-10-12T15:22:15;13.70;;;6.95;;
56267;SDS011;42175;46.930;9.532;2022-10-12T15:24:43;21.05;;;7.43;;
56267;SDS011;42175;46.930;9.532;2022-10-12T15:27:10;16.88;;;8.75;;
56267;SDS011;42175;46.930;9.532;2022-10-12T15:29:35;18.23;;;6.70;;
56267;SDS011;42175;46.930;9.532;2022-10-12T15:32:01;17.65;;;7.25;;
56267;SDS011;42175;46.930;9.532;2022-10-12T15:34:27;13.13;;;5.93;;
56267;SDS011;42175;46.930;9.532;2022-10-12T15:36:53;14.90;;;6.28;;
56267;SDS011;42175;46.930;9.532;2022-10-12T15:39:18;15.90;;;6.38;;
56267;SDS011;42175;46.930;9.532;2022-10-12T15:41:44;13.40;;;6.93;;
56267;SDS011;42175;46.930;9.532;2022-10-12T15:44:11;13.32;;;6.22;;
56267;SDS011;42175;46.930;9.532;2022-10-12T15:46:39;12.05;;;6.30;;
56267;SDS011;42175;46.930;9.532;2022-10-12T15:49:06;11.38;;;6.47;;
56267;SDS011;42175;46.930;9.532;2022-10-12T15:51:32;10.25;;;6.35;;
56267;SDS011;42175;46.930;9.532;2022-10-12T15:54:09;13.05;;;6.80;;
56267;SDS011;42175;46.930;9.532;2022-10-12T15:56:35;13.52;;;6.75;;
56267;SDS011;42175;46.930;9.532;2022-10-12T15:59:02;10.60;;;5.53;;
56267;SDS011;42175;46.930;9.532;2022-10-12T16:01:28;10.98;;;6.15;;
56267;SDS011;42175;46.930;9.532;2022-10-12T16:03:54;11.82;;;6.68;;
56267;SDS011;42175;46.930;9.532;2022-10-12T16:06:20;17.45;;;6.75;;
56267;SDS011;42175;46.930;9.532;2022-10-12T16:08:46;10.88;;;6.32;;
56267;SDS011;42175;46.930;9.532;2022-10-12T16:11:12;14.43;;;6.22;;
56267;SDS011;42175;46.930;9.532;2022-10-12T16:13:40;10.18;;;6.80;;
56267;SDS011;42175;46.930;9.532;2022-10-12T16:16:09;11.73;;;7.10;;
56267;SDS011;42175;46.930;9.532;2022-10-12T16:18:35;14.23;;;6.10;;
56267;SDS011;42175;46.930;9.532;2022-10-12T16:21:01;10.43;;;5.65;;
56267;SDS011;42175;46.930;9.532;2022-10-12T16:23:27;11.93;;;5.90;;
56267;SDS011;42175;46.930;9.532;2022-10-12T16:25:58;10.60;;;6.45;;
56267;SDS011;42175;46.930;9.532;2022-10-12T16:28:28;10.82;;;7.03;;
56267;SDS011;42175;46.930;9.532;2022-10-12T16:30:54;11.60;;;6.22;;
56267;SDS011;42175;46.930;9.532;2022-10-12T16:33:20;11.45;;;6.65;;
56267;SDS011;42175;46.930;9.532;2022-10-12T16:35:46;9.20;;;6.18;;
56267;SDS011;42175;46.930;9.532;2022-10-12T16:38:11;10.45;;;6.07;;
56267;SDS011;42175;46.930;9.532;2022-10-12T16:40:39;9.93;;;6.00;;
56267;SDS011;42175;46.930;9.532;2022-10-12T16:43:06;12.43;;;6.43;;
56267;SDS011;42175;46.930;9.532;2022-10-12T16:45:32;10.40;;;5.88;;
56267;SDS011;42175;46.930;9.532;2022-10-12T16:47:58;9.25;;;6.00;;
56267;SDS011;42175;46.930;9.532;2022-10-12T16:50:24;9.48;;;6.15;;
56267;SDS011;42175;46.930;9.532;2022-10-12T16:52:50;11.00;;;6.05;;
56267;SDS011;42175;46.930;9.532;2022-10-12T16:55:16;17.38;;;6.18;;
56267;SDS011;42175;46.930;9.532;2022-10-12T16:57:43;10.23;;;6.50;;
56267;SDS011;42175;46.930;9.532;2022-10-12T17:00:10;10.05;;;6.53;;
56267;SDS011;42175;46.930;9.532;2022-10-12T17:02:39;15.88;;;6.88;;
56267;SDS011;42175;46.930;9.532;2022-10-12T17:05:05;11.00;;;6.93;;
56267;SDS011;42175;46.930;9.532;2022-10-12T17:07:32;15.63;;;7.35;;